createdAt,value
2018-06-23T00:00:57.748Z,8.90
2018-06-23T00:03:26.080Z,8.90
2018-06-23T00:05:54.429Z,8.90
2018-06-23T00:08:22.729Z,8.90
2018-06-23T00:10:51.079Z,8.90
2018-06-23T00:13:19.385Z,9.00
2018-06-23T00:15:47.726Z,9.00
2018-06-23T00:18:16.079Z,9.00
2018-06-23T00:20:44.409Z,9.00
2018-06-23T00:23:12.721Z,8.90
2018-06-23T00:25:46.316Z,8.90
2018-06-23T00:28:14.628Z,8.80
2018-06-23T00:30:43.065Z,8.80
2018-06-23T00:33:11.372Z,8.80
2018-06-23T00:35:39.692Z,8.80
2018-06-23T00:40:36.069Z,8.70
2018-06-23T00:43:04.364Z,8.70
2018-06-23T00:45:32.689Z,8.70
2018-06-23T00:48:01.013Z,8.70
2018-06-23T00:50:29.341Z,8.60
2018-06-23T00:52:57.649Z,8.70
2018-06-23T00:55:25.977Z,8.60
2018-06-23T00:57:54.304Z,8.60
2018-06-23T01:00:22.641Z,8.60
2018-06-23T01:02:50.956Z,8.50
2018-06-23T01:05:19.308Z,8.50
2018-06-23T01:07:47.620Z,8.40
2018-06-23T01:10:16.008Z,8.40
2018-06-23T01:12:44.312Z,8.40
2018-06-23T01:15:12.624Z,8.30
2018-06-23T01:17:40.933Z,8.20
2018-06-23T01:20:09.274Z,8.20
2018-06-23T01:22:37.620Z,8.10
2018-06-23T01:25:06.022Z,8.00
2018-06-23T01:27:34.332Z,8.00
2018-06-23T01:30:02.770Z,8.00
2018-06-23T01:32:31.097Z,7.90
2018-06-23T01:34:59.396Z,7.90
2018-06-23T01:37:27.725Z,7.90
2018-06-23T01:39:56.029Z,7.90
2018-06-23T01:44:52.385Z,7.90
2018-06-23T01:49:48.742Z,8.00
2018-06-23T01:52:17.085Z,7.90
2018-06-23T01:54:45.417Z,8.00
2018-06-23T01:57:13.759Z,8.00
2018-06-23T01:59:42.071Z,8.00
2018-06-23T02:02:10.406Z,8.00
2018-06-23T02:04:38.765Z,8.00
2018-06-23T02:07:07.124Z,7.90
2018-06-23T02:09:35.438Z,7.90
2018-06-23T02:12:03.854Z,7.90
2018-06-23T02:14:37.577Z,7.80
2018-06-23T02:19:19.859Z,7.90
2018-06-23T02:21:53.649Z,7.90
2018-06-23T02:24:27.421Z,7.90
2018-06-23T02:27:01.148Z,7.90
2018-06-23T02:29:34.852Z,7.90
2018-06-23T02:32:08.637Z,7.90
2018-06-23T02:34:42.393Z,7.90
2018-06-23T02:37:10.749Z,7.90
2018-06-23T02:39:39.076Z,7.90
2018-06-23T02:42:07.430Z,7.90
2018-06-23T02:44:35.744Z,7.90
2018-06-23T02:47:04.104Z,7.90
2018-06-23T02:49:32.428Z,7.90
2018-06-23T02:52:00.777Z,7.90
2018-06-23T02:54:29.102Z,7.80
2018-06-23T02:56:57.436Z,7.80
2018-06-23T02:59:25.765Z,7.80
2018-06-23T03:01:54.109Z,7.80
2018-06-23T03:04:22.453Z,7.80
2018-06-23T03:06:50.789Z,7.80
2018-06-23T03:09:19.121Z,7.70
2018-06-23T03:11:47.455Z,7.70
2018-06-23T03:14:15.781Z,7.70
2018-06-23T03:16:44.102Z,7.70
2018-06-23T03:19:12.428Z,7.70
2018-06-23T03:21:40.744Z,7.70
2018-06-23T03:24:09.074Z,7.70
2018-06-23T03:26:37.380Z,7.70
2018-06-23T03:29:05.785Z,7.70
2018-06-23T03:31:34.093Z,7.60
2018-06-23T03:34:02.415Z,7.60
2018-06-23T03:36:30.712Z,7.50
2018-06-23T03:38:59.041Z,7.50
2018-06-23T03:41:27.354Z,7.50
2018-06-23T03:43:55.689Z,7.40
2018-06-23T03:46:23.990Z,7.40
2018-06-23T03:51:20.356Z,7.30
2018-06-23T03:53:48.668Z,7.40
2018-06-23T03:56:16.993Z,7.40
2018-06-23T03:58:45.312Z,7.40
2018-06-23T04:01:13.636Z,7.40
2018-06-23T04:03:41.965Z,7.50
2018-06-23T04:06:10.304Z,7.50
2018-06-23T04:08:38.624Z,7.60
2018-06-23T04:11:06.954Z,7.60
2018-06-23T04:13:35.277Z,7.70
2018-06-23T04:16:03.641Z,7.70
2018-06-23T04:18:31.969Z,7.80
2018-06-23T04:21:00.311Z,7.90
2018-06-23T04:23:28.627Z,7.90
2018-06-23T04:25:56.953Z,8.00
2018-06-23T04:28:25.257Z,8.00
2018-06-23T04:30:53.582Z,8.10
2018-06-23T04:33:21.884Z,8.20
2018-06-23T04:38:18.265Z,8.40
2018-06-23T04:40:46.592Z,8.50
2018-06-23T04:43:14.912Z,8.50
2018-06-23T04:45:43.252Z,8.50
2018-06-23T04:48:11.560Z,8.50
2018-06-23T04:50:39.880Z,8.50
2018-06-23T04:53:08.253Z,8.50
2018-06-23T04:55:36.568Z,8.50
2018-06-23T04:58:04.933Z,8.50
2018-06-23T05:00:33.368Z,8.50
2018-06-23T05:03:01.598Z,8.50
2018-06-23T05:05:29.936Z,8.50
2018-06-23T05:07:58.268Z,8.40
2018-06-23T05:10:26.588Z,8.40
2018-06-23T05:12:54.969Z,8.40
2018-06-23T05:15:23.281Z,8.40
2018-06-23T05:17:51.629Z,8.40
2018-06-23T05:20:20.030Z,8.40
2018-06-23T05:22:48.302Z,8.50
2018-06-23T05:25:16.629Z,8.60
2018-06-23T05:27:44.968Z,8.80
2018-06-23T05:30:13.285Z,8.90
2018-06-23T05:32:41.629Z,9.00
2018-06-23T05:35:09.953Z,9.20
2018-06-23T05:37:38.291Z,9.30
2018-06-23T05:40:06.641Z,9.50
2018-06-23T05:42:34.974Z,9.70
2018-06-23T05:45:03.373Z,9.80
2018-06-23T05:47:31.736Z,10.00
2018-06-23T05:50:00.082Z,10.00
2018-06-23T05:52:28.449Z,10.20
2018-06-23T05:54:56.773Z,10.30
2018-06-23T05:57:25.168Z,10.40
2018-06-23T05:59:53.494Z,10.50
2018-06-23T06:02:21.845Z,10.70
2018-06-23T06:04:50.185Z,10.80
2018-06-23T06:07:18.542Z,10.90
2018-06-23T06:09:46.852Z,11.10
2018-06-23T06:12:15.292Z,11.20
2018-06-23T06:14:43.624Z,11.40
2018-06-23T06:17:22.403Z,11.50
2018-06-23T06:19:52.626Z,11.60
2018-06-23T06:22:21.332Z,11.60
2018-06-23T06:24:49.676Z,11.70
2018-06-23T06:27:17.976Z,11.80
2018-06-23T06:29:46.300Z,12.10
2018-06-23T06:32:14.658Z,12.30
2018-06-23T06:34:43.012Z,12.50
2018-06-23T06:37:11.346Z,12.60
2018-06-23T06:39:39.686Z,12.70
2018-06-23T06:42:08.017Z,12.80
2018-06-23T06:44:36.403Z,12.90
2018-06-23T06:47:04.757Z,13.00
2018-06-23T06:49:33.101Z,13.20
2018-06-23T06:52:01.414Z,13.30
2018-06-23T06:54:29.765Z,13.40
2018-06-23T06:56:58.085Z,13.50
2018-06-23T06:59:26.430Z,13.70
2018-06-23T07:01:54.764Z,13.80
2018-06-23T07:04:23.152Z,13.80
2018-06-23T07:06:51.480Z,13.60
2018-06-23T07:09:19.836Z,13.50
2018-06-23T07:11:48.199Z,13.50
2018-06-23T07:14:16.576Z,13.30
2018-06-23T07:16:44.914Z,13.20
2018-06-23T07:19:13.256Z,13.30
2018-06-23T07:21:41.596Z,13.40
2018-06-23T07:24:10.005Z,13.40
2018-06-23T07:26:38.303Z,13.50
2018-06-23T07:29:07.268Z,13.60
2018-06-23T07:31:35.751Z,13.70
2018-06-23T07:34:05.095Z,13.60
2018-06-23T07:36:33.454Z,13.50
2018-06-23T07:39:01.813Z,13.30
2018-06-23T07:41:30.153Z,13.30
2018-06-23T07:43:58.512Z,13.20
2018-06-23T07:46:26.856Z,13.30
2018-06-23T07:48:55.214Z,13.50
2018-06-23T07:51:23.545Z,13.70
2018-06-23T07:53:51.953Z,13.90
2018-06-23T07:56:20.421Z,14.00
2018-06-23T07:58:48.641Z,14.20
2018-06-23T08:01:16.977Z,14.30
2018-06-23T08:03:45.333Z,14.40
2018-06-23T08:08:41.730Z,14.50
2018-06-23T08:11:10.073Z,14.60
2018-06-23T08:13:38.389Z,14.60
2018-06-23T08:16:07.196Z,14.60
2018-06-23T08:18:35.575Z,14.50
2018-06-23T08:21:03.936Z,14.30
2018-06-23T08:23:32.269Z,14.20
2018-06-23T08:26:00.608Z,14.20
2018-06-23T08:28:28.996Z,14.10
2018-06-23T08:30:57.368Z,14.20
2018-06-23T08:33:25.684Z,14.20
2018-06-23T08:35:54.056Z,14.30
2018-06-23T08:38:22.388Z,14.50
2018-06-23T08:40:50.766Z,14.80
2018-06-23T08:43:19.081Z,14.80
2018-06-23T08:45:47.415Z,14.80
2018-06-23T08:48:15.737Z,15.00
2018-06-23T08:50:44.066Z,15.20
2018-06-23T08:53:12.410Z,15.20
2018-06-23T08:55:40.753Z,15.10
2018-06-23T08:58:09.089Z,15.30
2018-06-23T09:00:37.410Z,15.20
2018-06-23T09:03:05.845Z,15.10
2018-06-23T09:05:34.237Z,14.90
2018-06-23T09:08:02.565Z,14.90
2018-06-23T09:10:30.897Z,14.80
2018-06-23T09:12:59.229Z,14.80
2018-06-23T09:15:27.570Z,14.70
2018-06-23T09:17:55.881Z,14.90
2018-06-23T09:20:24.234Z,15.00
2018-06-23T09:22:52.565Z,15.20
2018-06-23T09:27:48.950Z,15.30
2018-06-23T09:30:17.268Z,15.30
2018-06-23T09:32:45.616Z,15.40
2018-06-23T09:35:13.948Z,15.30
2018-06-23T09:37:42.305Z,15.30
2018-06-23T09:40:10.630Z,15.30
2018-06-23T09:42:38.968Z,15.20
2018-06-23T09:45:07.307Z,15.30
2018-06-23T09:47:35.664Z,15.50
2018-06-23T09:50:04.041Z,15.60
2018-06-23T09:55:00.456Z,15.30
2018-06-23T09:57:28.784Z,15.10
2018-06-23T09:59:57.096Z,15.00
2018-06-23T10:02:25.513Z,14.90
2018-06-23T10:04:53.857Z,14.90
2018-06-23T10:07:22.250Z,14.80
2018-06-23T10:09:50.591Z,14.80
2018-06-23T10:12:18.932Z,14.90
2018-06-23T10:14:47.256Z,14.90
2018-06-23T10:17:15.606Z,15.00
2018-06-23T10:22:12.032Z,15.10
2018-06-23T10:24:40.420Z,15.20
2018-06-23T10:27:08.761Z,15.40
2018-06-23T10:29:37.176Z,15.60
2018-06-23T10:32:05.621Z,15.70
2018-06-23T10:34:33.976Z,15.90
2018-06-23T10:37:02.331Z,16.00
2018-06-23T10:39:30.662Z,16.00
2018-06-23T10:41:59.026Z,15.80
2018-06-23T10:44:27.368Z,15.60
2018-06-23T10:46:55.724Z,15.60
2018-06-23T10:49:24.055Z,15.60
2018-06-23T10:51:52.397Z,15.70
2018-06-23T10:56:48.812Z,15.80
2018-06-23T10:59:17.164Z,15.70
2018-06-23T11:01:45.493Z,15.60
2018-06-23T11:04:13.854Z,15.40
2018-06-23T11:06:42.172Z,15.50
2018-06-23T11:11:38.776Z,15.80
2018-06-23T11:14:07.113Z,15.80
2018-06-23T11:16:35.466Z,15.70
2018-06-23T11:19:04.251Z,15.80
2018-06-23T11:21:32.570Z,15.80
2018-06-23T11:24:00.896Z,16.00
2018-06-23T11:26:29.208Z,16.00
2018-06-23T11:28:57.972Z,16.10
2018-06-23T11:31:26.301Z,16.30
2018-06-23T11:33:54.673Z,16.40
2018-06-23T11:36:23.841Z,16.50
2018-06-23T11:38:52.180Z,16.60
2018-06-23T11:41:20.583Z,16.50
2018-06-23T11:43:48.885Z,16.40
2018-06-23T11:46:17.312Z,16.30
2018-06-23T11:48:45.648Z,16.30
2018-06-23T11:51:13.972Z,16.30
2018-06-23T11:53:42.304Z,16.40
2018-06-23T11:56:10.622Z,16.30
2018-06-23T11:58:38.957Z,16.30
2018-06-23T12:01:07.268Z,16.50
2018-06-23T12:03:35.920Z,16.40
2018-06-23T12:06:04.260Z,16.40
2018-06-23T12:08:32.584Z,16.40
2018-06-23T12:11:00.901Z,16.50
2018-06-23T12:13:29.236Z,16.60
2018-06-23T12:15:57.565Z,16.60
2018-06-23T12:18:25.896Z,16.60
2018-06-23T12:20:54.275Z,16.60
2018-06-23T12:23:22.616Z,16.70
2018-06-23T12:25:50.949Z,16.80
2018-06-23T12:28:19.287Z,16.80
2018-06-23T12:30:47.609Z,17.00
2018-06-23T12:33:15.924Z,17.00
2018-06-23T12:35:44.266Z,17.00
2018-06-23T12:38:12.580Z,16.90
2018-06-23T12:40:40.921Z,16.90
2018-06-23T12:43:09.228Z,16.90
2018-06-23T12:45:37.569Z,16.90
2018-06-23T12:48:05.936Z,17.10
2018-06-23T12:50:34.477Z,17.00
2018-06-23T12:53:02.898Z,17.00
2018-06-23T12:55:31.228Z,17.20
2018-06-23T12:57:59.573Z,17.20
2018-06-23T13:00:27.933Z,17.40
2018-06-23T13:02:56.261Z,17.50
2018-06-23T13:05:24.648Z,17.50
2018-06-23T13:07:52.973Z,17.50
2018-06-23T13:10:21.343Z,17.50
2018-06-23T13:12:49.665Z,17.60
2018-06-23T13:20:14.125Z,17.70
2018-06-23T13:22:42.460Z,17.70
2018-06-23T13:25:10.820Z,17.60
2018-06-23T13:27:39.368Z,17.70
2018-06-23T13:30:07.735Z,17.80
2018-06-23T13:32:36.065Z,17.80
2018-06-23T13:35:04.695Z,17.80
2018-06-23T13:37:33.022Z,17.80
2018-06-23T13:40:01.360Z,17.80
2018-06-23T13:42:29.672Z,17.90
2018-06-23T13:44:58.016Z,17.90
2018-06-23T13:47:26.357Z,17.90
2018-06-23T13:49:54.724Z,17.90
2018-06-23T13:52:23.056Z,17.90
2018-06-23T13:54:51.388Z,17.90
2018-06-23T13:57:19.712Z,18.00
2018-06-23T13:59:48.061Z,18.10
2018-06-23T14:02:16.385Z,18.00
2018-06-23T14:04:44.756Z,18.00
2018-06-23T14:07:13.127Z,18.00
2018-06-23T14:09:41.462Z,18.00
2018-06-23T14:12:09.814Z,17.90
2018-06-23T14:14:38.171Z,17.90
2018-06-23T14:17:06.741Z,17.90
2018-06-23T14:19:35.074Z,17.90
2018-06-23T14:22:03.452Z,17.90
2018-06-23T14:24:31.792Z,17.90
2018-06-23T14:27:00.161Z,17.90
2018-06-23T14:29:28.497Z,18.00
2018-06-23T14:31:57.092Z,18.20
2018-06-23T14:34:25.272Z,18.20
2018-06-23T14:36:53.645Z,18.20
2018-06-23T14:39:21.992Z,18.30
2018-06-23T14:41:50.356Z,18.30
2018-06-23T14:44:18.700Z,18.40
2018-06-23T14:46:47.180Z,18.40
2018-06-23T14:49:15.520Z,18.50
2018-06-23T14:51:43.893Z,18.40
2018-06-23T14:54:12.205Z,18.40
2018-06-23T14:56:40.561Z,18.30
2018-06-23T14:59:08.884Z,18.30
2018-06-23T15:01:37.233Z,18.30
2018-06-23T15:04:05.734Z,18.30
2018-06-23T15:06:34.085Z,18.30
2018-06-23T15:09:13.637Z,18.30
2018-06-23T15:11:53.399Z,18.40
2018-06-23T15:14:21.734Z,18.40
2018-06-23T15:16:50.117Z,18.40
2018-06-23T15:19:18.488Z,18.50
2018-06-23T15:21:46.849Z,18.40
2018-06-23T15:24:15.313Z,18.40
2018-06-23T15:26:43.666Z,18.40
2018-06-23T15:29:12.025Z,18.40
2018-06-23T15:31:40.376Z,18.40
2018-06-23T15:34:08.706Z,18.40
2018-06-23T15:36:37.072Z,18.50
2018-06-23T15:39:07.799Z,18.60
2018-06-23T15:41:36.172Z,18.60
2018-06-23T15:44:04.622Z,18.60
2018-06-23T15:46:33.161Z,18.60
2018-06-23T15:49:01.491Z,18.70
2018-06-23T15:51:30.066Z,18.80
2018-06-23T15:53:58.504Z,18.80
2018-06-23T15:57:05.289Z,18.80
2018-06-23T15:59:33.624Z,18.70
2018-06-23T16:02:02.031Z,18.70
2018-06-23T16:04:30.380Z,18.60
2018-06-23T16:06:58.729Z,18.50
2018-06-23T16:09:27.301Z,18.30
2018-06-23T16:14:23.794Z,18.10
2018-06-23T16:16:52.212Z,18.10
2018-06-23T16:19:20.554Z,18.20
2018-06-23T16:21:48.933Z,18.20
2018-06-23T16:24:17.276Z,18.30
2018-06-23T16:29:13.653Z,18.40
2018-06-23T16:31:42.045Z,18.40
2018-06-23T16:34:10.412Z,18.50
2018-06-23T16:36:38.746Z,18.70
2018-06-23T16:39:09.070Z,18.70
2018-06-23T16:41:37.405Z,18.70
2018-06-23T16:44:06.133Z,18.80
2018-06-23T16:46:34.684Z,18.80
2018-06-23T16:49:03.301Z,18.80
2018-06-23T16:51:31.633Z,18.80
2018-06-23T16:54:00.012Z,18.70
2018-06-23T16:56:28.398Z,18.50
2018-06-23T16:58:56.712Z,18.40
2018-06-23T17:01:25.065Z,18.50
2018-06-23T17:03:53.574Z,18.50
2018-06-23T17:06:21.771Z,18.60
2018-06-23T17:08:50.106Z,18.60
2018-06-23T17:11:18.608Z,18.60
2018-06-23T17:13:47.065Z,18.40
2018-06-23T17:16:15.384Z,18.20
2018-06-23T17:18:43.762Z,18.00
2018-06-23T17:21:12.152Z,17.90
2018-06-23T17:23:40.434Z,17.80
2018-06-23T17:26:08.745Z,17.70
2018-06-23T17:28:37.079Z,17.60
2018-06-23T17:31:05.404Z,17.60
2018-06-23T17:33:33.744Z,17.40
2018-06-23T17:36:02.073Z,17.40
2018-06-23T17:38:30.428Z,17.30
2018-06-23T17:40:58.773Z,17.30
2018-06-23T17:43:27.102Z,17.10
2018-06-23T17:45:55.445Z,17.00
2018-06-23T17:48:23.789Z,17.00
2018-06-23T17:50:52.109Z,17.00
2018-06-23T17:55:48.489Z,16.90
2018-06-23T17:58:16.820Z,16.90
2018-06-23T18:00:45.133Z,16.90
2018-06-23T18:03:13.465Z,16.90
2018-06-23T18:05:41.837Z,16.90
2018-06-23T18:08:10.206Z,16.90
2018-06-23T18:10:38.801Z,16.80
2018-06-23T18:13:07.177Z,16.70
2018-06-23T18:15:35.597Z,16.70
2018-06-23T18:18:03.940Z,16.70
2018-06-23T18:20:32.306Z,16.60
2018-06-23T18:23:00.633Z,16.60
2018-06-23T18:25:29.026Z,16.40
2018-06-23T18:27:57.333Z,16.40
2018-06-23T18:30:25.673Z,16.30
2018-06-23T18:32:54.001Z,16.30
2018-06-23T18:35:22.360Z,16.20
2018-06-23T18:37:50.710Z,16.20
2018-06-23T18:40:19.065Z,16.10
2018-06-23T18:42:47.393Z,16.00
2018-06-23T18:45:15.745Z,15.90
2018-06-23T18:47:44.139Z,15.90
2018-06-23T18:52:40.581Z,15.80
2018-06-23T18:55:08.971Z,15.70
2018-06-23T18:57:37.273Z,15.60
2018-06-23T19:00:06.961Z,15.60
2018-06-23T19:02:35.300Z,15.50
2018-06-23T19:05:03.752Z,15.40
2018-06-23T19:07:32.081Z,15.40
2018-06-23T19:10:00.448Z,15.30
2018-06-23T19:12:28.794Z,15.20
2018-06-23T19:14:57.133Z,15.20
2018-06-23T19:17:25.472Z,15.10
2018-06-23T19:19:53.833Z,15.10
2018-06-23T19:22:22.165Z,15.00
2018-06-23T19:24:50.506Z,14.90
2018-06-23T19:27:18.840Z,14.80
2018-06-23T19:29:47.180Z,14.80
2018-06-23T19:32:15.505Z,14.80
2018-06-23T19:34:43.840Z,14.70
2018-06-23T19:37:12.189Z,14.70
2018-06-23T19:39:40.544Z,14.60
2018-06-23T19:42:08.885Z,14.60
2018-06-23T19:44:37.231Z,14.50
2018-06-23T19:47:05.597Z,14.40
2018-06-23T19:49:33.936Z,14.40
2018-06-23T19:52:02.296Z,14.30
2018-06-23T19:54:30.653Z,14.30
2018-06-23T19:56:58.981Z,14.20
2018-06-23T19:59:27.300Z,14.10
2018-06-23T20:01:55.649Z,14.10
2018-06-23T20:04:24.003Z,14.10
2018-06-23T20:06:52.349Z,14.10
2018-06-23T20:09:20.688Z,14.10
2018-06-23T20:11:49.026Z,14.00
2018-06-23T20:14:17.340Z,14.00
2018-06-23T20:21:41.787Z,13.90
2018-06-23T20:24:10.108Z,13.90
2018-06-23T20:26:38.456Z,13.90
2018-06-23T20:29:06.773Z,13.80
2018-06-23T20:31:35.112Z,13.80
2018-06-23T20:34:03.424Z,13.80
2018-06-23T20:36:31.788Z,13.80
2018-06-23T20:39:00.148Z,13.80
2018-06-23T20:41:28.476Z,13.80
2018-06-23T20:43:56.785Z,13.70
2018-06-23T20:46:25.117Z,13.70
2018-06-23T20:48:53.435Z,13.70
2018-06-23T20:51:21.789Z,13.70
2018-06-23T20:53:50.121Z,13.60
2018-06-23T20:56:18.485Z,13.60
2018-06-23T20:58:46.819Z,13.60
2018-06-23T21:01:15.233Z,13.50
2018-06-23T21:03:43.550Z,13.50
2018-06-23T21:06:12.013Z,13.50
2018-06-23T21:08:40.333Z,13.50
2018-06-23T21:11:08.701Z,13.50
2018-06-23T21:13:37.072Z,13.40
2018-06-23T21:16:05.706Z,13.40
2018-06-23T21:18:34.033Z,13.30
2018-06-23T21:21:02.373Z,13.30
2018-06-23T21:23:30.702Z,13.30
2018-06-23T21:25:59.036Z,13.30
2018-06-23T21:28:27.349Z,13.30
2018-06-23T21:30:55.804Z,13.20
2018-06-23T21:33:24.189Z,13.20
2018-06-23T21:35:53.409Z,13.10
2018-06-23T21:38:21.740Z,13.10
2018-06-23T21:40:50.055Z,13.00
2018-06-23T21:43:18.397Z,13.00
2018-06-23T21:45:46.737Z,13.00
2018-06-23T21:48:15.097Z,13.00
2018-06-23T21:50:43.429Z,12.90
2018-06-23T21:55:39.834Z,12.90
2018-06-23T21:58:08.192Z,12.80
2018-06-23T22:00:39.524Z,12.80
2018-06-23T22:03:09.188Z,12.80
2018-06-23T22:05:37.625Z,12.70
2018-06-23T22:08:06.896Z,12.70
2018-06-23T22:10:35.260Z,12.80
2018-06-23T22:13:03.996Z,12.70
2018-06-23T22:15:32.358Z,12.70
2018-06-23T22:18:00.729Z,12.70
2018-06-23T22:20:29.085Z,12.70
2018-06-23T22:22:57.462Z,12.70
2018-06-23T22:25:25.800Z,12.60
2018-06-23T22:27:54.162Z,12.60
2018-06-23T22:30:22.796Z,12.60
2018-06-23T22:32:51.161Z,12.60
2018-06-23T22:35:19.528Z,12.50
2018-06-23T22:37:47.876Z,12.50
2018-06-23T22:40:16.197Z,12.50
2018-06-23T22:42:44.568Z,12.50
2018-06-23T22:45:12.941Z,12.40
2018-06-23T22:47:41.286Z,12.40
2018-06-23T22:50:10.353Z,12.40
2018-06-23T22:52:38.940Z,12.40
2018-06-23T22:55:08.032Z,12.30
2018-06-23T22:57:36.397Z,12.30
2018-06-23T23:00:08.954Z,12.30
2018-06-23T23:02:37.324Z,12.20
2018-06-23T23:05:06.091Z,12.20
2018-06-23T23:07:34.441Z,12.20
2018-06-23T23:10:02.834Z,12.10
2018-06-23T23:12:31.212Z,12.10
2018-06-23T23:14:59.540Z,12.00
2018-06-23T23:17:27.949Z,12.00
2018-06-23T23:19:56.268Z,11.90
2018-06-23T23:22:24.680Z,11.90
2018-06-23T23:24:53.309Z,11.90
2018-06-23T23:27:21.984Z,11.90
2018-06-23T23:29:50.336Z,11.80
2018-06-23T23:32:18.720Z,11.80
2018-06-23T23:34:47.096Z,11.80
2018-06-23T23:37:15.434Z,11.80
2018-06-23T23:39:43.777Z,11.70
2018-06-23T23:42:12.106Z,11.70
2018-06-23T23:44:40.448Z,11.70
2018-06-23T23:47:08.788Z,11.70
2018-06-23T23:49:37.133Z,11.70
2018-06-23T23:52:05.520Z,11.70
2018-06-23T23:57:01.933Z,11.60
2018-06-23T23:59:30.302Z,11.60
